Time;durP1;ratioP1;P1;durP2;ratioP2;P2;SDS_P1;SDS_P2;PMS_P1;PMS_P2;Temp;Humidity;BMP_temperature;BMP_pressure;BME280_temperature;BME280_humidity;BME280_pressure;Samples;Min_cycle;Max_cycle;Signal;HPM_P1;HPM_P2
2022/09/08 00:00:17;;;;;;;0.25;0.13;;;;;;;18.29;100.00;98736.22;7386387;19;20046;-80
2022/09/08 00:02:43;;;;;;;6.35;0.35;;;;;;;18.46;100.00;98739.34;7391213;19;20018;-80
2022/09/08 00:05:13;;;;;;;1.42;0.52;;;;;;;18.45;100.00;98739.91;7386866;19;20031;-81
2022/09/08 00:07:39;;;;;;;4.60;0.38;;;;;;;18.45;100.00;98731.47;7387426;19;20026;-80
2022/09/08 00:10:05;;;;;;;0.43;0.32;;;;;;;18.45;100.00;98739.91;7386712;19;20014;-80
2022/09/08 00:12:34;;;;;;;0.10;0.08;;;;;;;18.46;100.00;98736.53;7388978;19;20098;-81
2022/09/08 00:15:01;;;;;;;0.57;0.30;;;;;;;18.50;100.00;98733.34;7386038;19;20018;-79
2022/09/08 00:17:28;;;;;;;0.68;0.40;;;;;;;18.37;100.00;98730.63;7390091;19;20146;-81
2022/09/08 00:19:54;;;;;;;0.13;0.13;;;;;;;18.37;100.00;98730.63;7385193;19;20036;-81
2022/09/08 00:22:20;;;;;;;0.90;0.47;;;;;;;18.43;100.00;98728.41;7386810;19;20018;-81
2022/09/08 00:24:47;;;;;;;0.50;0.20;;;;;;;18.43;100.00;98728.41;7388683;19;20085;-81
2022/09/08 00:27:13;;;;;;;2.75;0.57;;;;;;;18.56;100.00;98731.13;7390423;19;20020;-81
2022/09/08 00:29:39;;;;;;;0.95;0.30;;;;;;;18.50;100.00;98722.81;7390005;19;20033;-81
2022/09/08 00:32:05;;;;;;;0.95;0.25;;;;;;;18.47;100.00;98720.38;7390629;19;20112;-82
2022/09/08 00:34:32;;;;;;;0.90;0.55;;;;;;;18.41;100.00;98722.56;7385849;19;20390;-81
2022/09/08 00:36:58;;;;;;;0.40;0.40;;;;;;;18.36;100.00;98717.84;7389945;19;20022;-81
2022/09/08 00:39:24;;;;;;;0.20;0.20;;;;;;;18.32;100.00;98723.09;7383479;19;20074;-81
2022/09/08 00:41:50;;;;;;;1.63;0.30;;;;;;;18.26;100.00;98726.06;7384240;19;20019;-81
2022/09/08 00:44:39;;;;;;;0.38;0.20;;;;;;;18.25;100.00;98726.63;7385539;19;20347;-80
2022/09/08 00:47:13;;;;;;;3.70;0.43;;;;;;;18.27;100.00;98726.81;7388629;19;20089;-81
2022/09/08 00:49:41;;;;;;;0.35;0.10;;;;;;;18.14;100.00;98717.19;7387771;19;20019;-81
2022/09/08 00:52:08;;;;;;;2.25;0.60;;;;;;;18.07;100.00;98717.88;7387181;19;20018;-81
2022/09/08 00:54:35;;;;;;;0.57;0.13;;;;;;;18.04;100.00;98718.97;7388019;19;20021;-81
2022/09/08 00:57:02;;;;;;;3.30;0.73;;;;;;;18.07;100.00;98725.56;7391210;19;20097;-81
2022/09/08 00:59:32;;;;;;;0.43;0.43;;;;;;;18.08;100.00;98721.47;7384984;19;20027;-81
2022/09/08 01:01:58;;;;;;;0.20;0.10;;;;;;;18.06;100.00;98719.19;7387459;19;20025;-81
2022/09/08 01:04:24;;;;;;;1.90;0.30;;;;;;;18.01;100.00;98711.66;7385498;19;20363;-81
2022/09/08 01:13:22;;;;;;;0.30;0.30;;;;;;;17.93;100.00;98705.19;7391911;19;20039;-81
2022/09/08 01:15:48;;;;;;;0.10;0.10;;;;;;;17.93;100.00;98710.84;7395804;19;20461;-80
2022/09/08 01:18:14;;;;;;;0.30;0.28;;;;;;;17.91;100.00;98713.44;7391326;19;20014;-81
2022/09/08 01:20:59;;;;;;;0.32;0.20;;;;;;;17.88;100.00;98714.56;7390629;19;20014;-81
2022/09/08 01:24:06;;;;;;;0.10;0.10;;;;;;;17.89;100.00;98716.06;7393564;19;20022;-82
2022/09/08 01:26:45;;;;;;;1.15;0.50;;;;;;;17.90;100.00;98706.31;7389372;19;20014;-81
2022/09/08 01:29:14;;;;;;;0.30;0.30;;;;;;;17.85;100.00;98715.66;7390699;19;20110;-81
2022/09/08 01:31:43;;;;;;;0.10;0.00;;;;;;;17.87;100.00;98721.50;7394593;19;20035;-80
2022/09/08 01:34:10;;;;;;;0.20;0.20;;;;;;;17.96;100.00;98721.00;7394157;19;20437;-81
2022/09/08 01:36:36;;;;;;;5.28;0.52;;;;;;;17.86;100.00;98717.19;7396565;19;20382;-81
2022/09/08 01:39:02;;;;;;;0.98;0.40;;;;;;;17.84;100.00;98708.53;7391269;19;20505;-81
2022/09/08 01:41:28;;;;;;;0.65;0.55;;;;;;;17.84;100.00;98714.19;7394547;19;20038;-81
2022/09/08 01:43:54;;;;;;;0.35;0.35;;;;;;;17.79;100.00;98715.06;7393025;19;20007;-81
2022/09/08 01:46:21;;;;;;;2.08;0.35;;;;;;;17.83;100.00;98709.84;7393855;19;20015;-81
2022/09/08 01:48:47;;;;;;;0.43;0.43;;;;;;;17.90;100.00;98711.19;7389711;19;20022;-80
2022/09/08 01:51:13;;;;;;;0.30;0.30;;;;;;;17.81;100.00;98709.63;7391986;19;20042;-80
2022/09/08 01:53:39;;;;;;;1.90;0.40;;;;;;;17.78;100.00;98710.72;7393625;19;20053;-81
2022/09/08 01:56:05;;;;;;;2.15;0.60;;;;;;;17.71;100.00;98705.06;7395158;19;20039;-82
2022/09/08 01:58:32;;;;;;;1.27;0.45;;;;;;;17.63;100.00;98718.34;7390458;19;20014;-81
2022/09/08 02:00:58;;;;;;;1.38;0.70;;;;;;;17.67;100.00;98705.41;7391310;19;20025;-81
2022/09/08 02:03:25;;;;;;;9.65;0.55;;;;;;;17.86;100.00;98705.94;7391171;19;20019;-81
2022/09/08 02:05:52;;;;;;;4.35;0.82;;;;;;;17.86;100.00;98705.94;7390483;19;20039;-82
2022/09/08 02:08:18;;;;;;;2.45;0.40;;;;;;;17.77;100.00;98703.59;7389722;19;20015;-80
2022/09/08 02:10:56;;;;;;;11.48;0.65;;;;;;;17.92;100.00;98698.06;7390484;19;20025;-81
2022/09/08 02:13:22;;;;;;;0.25;0.10;;;;;;;17.95;100.00;98699.75;7391680;19;20414;-83
2022/09/08 02:15:49;;;;;;;0.50;0.20;;;;;;;17.95;100.00;98702.59;7392028;19;20034;-82
2022/09/08 02:18:15;;;;;;;0.38;0.32;;;;;;;17.87;100.00;98698.22;7393949;19;20023;-82
2022/09/08 02:20:42;;;;;;;1.65;0.40;;;;;;;17.91;100.00;98690.91;7393605;19;20050;-82
2022/09/08 02:23:08;;;;;;;5.32;0.28;;;;;;;17.94;100.00;98687.00;7393013;19;20018;-80
2022/09/08 02:25:34;;;;;;;0.10;0.10;;;;;;;17.91;100.00;98685.28;7389032;19;20364;-80
2022/09/08 02:28:00;;;;;;;0.10;0.10;;;;;;;17.97;100.00;98687.97;7389934;19;20041;-80
2022/09/08 02:30:27;;;;;;;0.20;0.10;;;;;;;17.91;100.00;98693.75;7392893;19;20540;-80
2022/09/08 02:32:53;;;;;;;0.10;0.10;;;;;;;17.70;100.00;98695.84;7396125;19;20014;-79
2022/09/08 02:35:19;;;;;;;0.10;0.10;;;;;;;17.75;100.00;98694.97;7390347;19;20026;-79
2022/09/08 02:37:45;;;;;;;0.10;0.00;;;;;;;17.91;100.00;98687.38;7389433;19;20026;-80
2022/09/08 02:40:12;;;;;;;0.68;0.40;;;;;;;17.83;100.00;98695.75;7388517;19;20022;-80
2022/09/08 02:42:39;;;;;;;0.40;0.40;;;;;;;17.69;100.00;98691.53;7388447;19;20018;-80
2022/09/08 02:45:08;;;;;;;0.88;0.38;;;;;;;17.72;100.00;98684.78;7387710;19;20011;-80
2022/09/08 02:47:34;;;;;;;1.30;0.52;;;;;;;17.80;100.00;98685.59;7392572;19;20046;-80
2022/09/08 02:50:01;;;;;;;0.20;0.17;;;;;;;18.00;100.00;98693.22;7390609;19;20031;-79
2022/09/08 02:52:30;;;;;;;0.10;0.10;;;;;;;18.01;100.00;98686.31;7390928;19;20010;-80
2022/09/08 02:54:57;;;;;;;2.75;0.25;;;;;;;18.03;100.00;98691.38;7390260;19;20081;-80
2022/09/08 02:57:23;;;;;;;0.47;0.15;;;;;;;18.00;100.00;98687.59;7394386;19;20023;-80
2022/09/08 02:59:49;;;;;;;0.20;0.10;;;;;;;18.03;100.00;98692.13;7387590;19;20375;-80
2022/09/08 03:02:15;;;;;;;0.70;0.60;;;;;;;17.98;100.00;98689.47;7390373;19;20018;-80
2022/09/08 03:04:42;;;;;;;0.30;0.30;;;;;;;17.81;100.00;98683.53;7387817;19;20422;-80
2022/09/08 03:07:08;;;;;;;0.20;0.10;;;;;;;17.83;100.00;98678.84;7391691;19;20022;-80
2022/09/08 03:09:34;;;;;;;0.10;0.10;;;;;;;17.98;100.00;98678.94;7390647;19;20022;-81
2022/09/08 03:12:00;;;;;;;0.35;0.35;;;;;;;18.02;100.00;98667.31;7389692;19;20023;-79
2022/09/08 03:14:26;;;;;;;0.20;0.10;;;;;;;18.06;100.00;98679.72;7388756;19;20540;-79
2022/09/08 03:16:53;;;;;;;0.47;0.20;;;;;;;17.98;100.00;98683.81;7393000;19;20026;-80
2022/09/08 03:19:19;;;;;;;0.32;0.13;;;;;;;18.00;100.00;98676.31;7386995;19;20025;-80
2022/09/08 03:21:45;;;;;;;0.10;0.10;;;;;;;17.91;100.00;98674.03;7388928;19;20018;-80
2022/09/08 03:24:11;;;;;;;0.10;0.10;;;;;;;17.92;100.00;98674.78;7392622;19;20030;-80
2022/09/08 03:26:37;;;;;;;0.30;0.17;;;;;;;17.89;100.00;98670.25;7391334;19;20022;-79
2022/09/08 03:29:05;;;;;;;0.22;0.22;;;;;;;17.88;100.00;98668.75;7389781;19;20078;-80
2022/09/08 03:31:31;;;;;;;0.35;0.22;;;;;;;17.87;100.00;98673.63;7391641;19;20057;-80
2022/09/08 03:33:57;;;;;;;0.20;0.10;;;;;;;17.86;100.00;98677.75;7388232;19;20052;-80
2022/09/08 03:36:23;;;;;;;2.67;0.32;;;;;;;17.80;100.00;98674.31;7390849;19;20575;-80
2022/09/08 03:38:49;;;;;;;0.40;0.32;;;;;;;17.62;100.00;98674.59;7387411;19;20011;-79
2022/09/08 03:41:16;;;;;;;0.40;0.40;;;;;;;17.54;100.00;98668.91;7387273;19;20033;-80
2022/09/08 03:43:44;;;;;;;0.50;0.28;;;;;;;17.52;100.00;98671.50;7388116;19;20063;-79
2022/09/08 03:46:11;;;;;;;0.10;0.05;;;;;;;17.50;100.00;98667.72;7392832;19;20014;-79
2022/09/08 03:48:37;;;;;;;0.38;0.30;;;;;;;17.66;100.00;98667.28;7385431;19;20105;-80
2022/09/08 03:51:16;;;;;;;3.50;0.28;;;;;;;17.58;100.00;98669.31;7387652;19;20037;-80
2022/09/08 03:53:44;;;;;;;0.70;0.70;;;;;;;17.59;100.00;98670.03;7387815;19;20037;-79
2022/09/08 03:56:11;;;;;;;0.40;0.30;;;;;;;17.58;100.00;98674.94;7388172;19;20533;-79
2022/09/08 03:58:38;;;;;;;1.85;0.30;;;;;;;17.44;100.00;98662.22;7384749;19;20619;-80
2022/09/08 04:01:12;;;;;;;0.30;0.25;;;;;;;17.40;100.00;98668.22;7386617;19;20039;-80
2022/09/08 04:03:39;;;;;;;0.10;0.00;;;;;;;17.41;100.00;98663.34;7385226;19;20014;-80
2022/09/08 04:06:06;;;;;;;0.25;0.20;;;;;;;17.39;100.00;98657.47;7387216;19;20090;-80
2022/09/08 04:08:32;;;;;;;0.15;0.10;;;;;;;17.40;100.00;98661.81;7386873;19;20030;-80
2022/09/08 04:10:59;;;;;;;0.20;0.20;;;;;;;17.31;100.00;98670.75;7388909;19;20026;-81
2022/09/08 04:13:26;;;;;;;0.30;0.20;;;;;;;17.27;100.00;98656.28;7386599;19;20821;-80
2022/09/08 04:15:53;;;;;;;0.50;0.20;;;;;;;17.22;100.00;98649.47;7388695;19;20011;-80
2022/09/08 04:18:19;;;;;;;3.63;0.65;;;;;;;17.27;100.00;98650.66;7386844;19;20011;-80
2022/09/08 04:20:58;;;;;;;0.10;0.10;;;;;;;17.21;100.00;98658.47;7383825;19;20018;-80
2022/09/08 04:23:24;;;;;;;0.35;0.25;;;;;;;17.20;100.00;98659.78;7386518;19;20018;-80
2022/09/08 04:26:02;;;;;;;0.30;0.10;;;;;;;17.16;100.00;98651.69;7386970;19;20018;-80
2022/09/08 04:28:29;;;;;;;0.45;0.30;;;;;;;17.19;100.00;98641.41;7389295;19;20024;-80
2022/09/08 04:30:56;;;;;;;1.95;0.32;;;;;;;17.20;100.00;98646.47;7386847;19;20018;-80
2022/09/08 04:33:22;;;;;;;0.20;0.20;;;;;;;17.18;100.00;98646.25;7391631;19;20019;-80
2022/09/08 04:35:48;;;;;;;0.10;0.10;;;;;;;17.23;100.00;98650.25;7390293;19;20022;-86
2022/09/08 04:38:14;;;;;;;0.30;0.30;;;;;;;17.18;100.00;98642.69;7390535;19;20015;-84
2022/09/08 04:40:41;;;;;;;0.47;0.20;;;;;;;17.10;100.00;98641.88;7391263;19;20015;-82
2022/09/08 04:43:08;;;;;;;4.28;0.85;;;;;;;17.33;100.00;98640.00;7387242;19;20018;-82
2022/09/08 04:45:34;;;;;;;0.10;0.10;;;;;;;17.31;100.00;98645.41;7388816;19;20595;-82
2022/09/08 04:48:00;;;;;;;4.22;0.95;;;;;;;17.25;100.00;98644.81;7385330;19;20022;-82
2022/09/08 04:50:26;;;;;;;2.20;0.30;;;;;;;17.23;100.00;98639.00;7390974;19;20018;-82
2022/09/08 04:52:52;;;;;;;0.43;0.38;;;;;;;17.19;100.00;98638.59;7390011;19;20014;-82
2022/09/08 04:55:18;;;;;;;0.55;0.17;;;;;;;17.17;100.00;98641.94;7388766;19;20381;-82
2022/09/08 04:57:45;;;;;;;0.50;0.30;;;;;;;17.08;100.00;98638.88;7388363;19;20023;-82
2022/09/08 05:00:13;;;;;;;0.20;0.20;;;;;;;17.06;100.00;98638.66;7389167;19;20666;-82
2022/09/08 05:02:39;;;;;;;1.27;0.57;;;;;;;17.10;100.00;98639.06;7392138;19;20015;-82
2022/09/08 05:05:06;;;;;;;0.28;0.13;;;;;;;17.01;100.00;98640.31;7389436;19;20014;-83
2022/09/08 05:07:32;;;;;;;3.13;0.40;;;;;;;16.82;100.00;98634.13;7393274;19;20365;-83
2022/09/08 05:09:58;;;;;;;0.47;0.45;;;;;;;16.79;100.00;98646.47;7388661;19;20022;-83
2022/09/08 05:12:24;;;;;;;0.95;0.75;;;;;;;16.76;100.00;98636.34;7389072;19;20015;-83
2022/09/08 05:14:50;;;;;;;0.13;0.13;;;;;;;16.72;100.00;98641.50;7388434;19;20027;-82
2022/09/08 05:17:16;;;;;;;0.10;0.10;;;;;;;16.72;100.00;98635.88;7392820;19;20030;-82
2022/09/08 05:19:42;;;;;;;0.50;0.30;;;;;;;16.61;100.00;98642.53;7388133;19;20027;-82
2022/09/08 05:22:09;;;;;;;2.05;0.20;;;;;;;16.58;100.00;98642.88;7388165;19;20034;-83
2022/09/08 05:24:35;;;;;;;0.10;0.10;;;;;;;16.60;100.00;98640.28;7392793;19;20018;-82
2022/09/08 05:27:01;;;;;;;7.22;0.38;;;;;;;16.59;100.00;98639.50;7388883;19;20522;-82
2022/09/08 05:29:27;;;;;;;1.40;0.22;;;;;;;16.58;100.00;98638.03;7386470;19;20563;-80
2022/09/08 05:31:54;;;;;;;0.10;0.10;;;;;;;16.61;100.00;98639.72;7385965;19;20021;-80
2022/09/08 05:34:20;;;;;;;0.20;0.20;;;;;;;16.65;100.00;98645.75;7384428;19;20457;-79
2022/09/08 05:36:46;;;;;;;1.55;0.43;;;;;;;16.68;100.00;98639.06;7388618;19;20019;-80
2022/09/08 05:39:12;;;;;;;2.58;0.30;;;;;;;16.71;100.00;98650.50;7381530;19;20022;-80
2022/09/08 05:41:38;;;;;;;0.28;0.28;;;;;;;16.77;100.00;98646.25;7383676;19;20047;-80
2022/09/08 05:44:06;;;;;;;0.77;0.25;;;;;;;16.75;100.00;98636.84;7383761;19;20043;-80
2022/09/08 05:46:32;;;;;;;1.38;0.30;;;;;;;16.71;100.00;98642.06;7385924;19;20022;-80
2022/09/08 05:48:59;;;;;;;0.20;0.15;;;;;;;16.73;100.00;98645.09;7381428;19;20018;-80
2022/09/08 05:51:26;;;;;;;0.30;0.05;;;;;;;16.62;100.00;98644.06;7383943;19;20015;-80
2022/09/08 05:53:52;;;;;;;1.35;0.10;;;;;;;16.56;100.00;98646.25;7389450;19;20105;-80
2022/09/08 05:56:18;;;;;;;0.15;0.15;;;;;;;16.63;100.00;98645.56;7385905;19;20026;-79
2022/09/08 05:58:52;;;;;;;0.65;0.52;;;;;;;16.60;100.00;98643.84;7387228;19;20086;-82
2022/09/08 06:01:19;;;;;;;0.10;0.10;;;;;;;16.63;100.00;98642.75;7390238;19;20634;-81
2022/09/08 06:03:49;;;;;;;0.75;0.40;;;;;;;16.68;100.00;98636.25;7387647;19;20093;-80
2022/09/08 06:06:16;;;;;;;0.95;0.40;;;;;;;16.78;100.00;98638.59;7389397;19;20082;-80
2022/09/08 06:08:42;;;;;;;1.20;0.57;;;;;;;16.61;100.00;98636.91;7389616;19;20026;-81
2022/09/08 06:11:09;;;;;;;2.30;0.80;;;;;;;16.77;100.00;98623.00;7391690;19;20017;-80
2022/09/08 06:13:36;;;;;;;0.30;0.30;;;;;;;16.78;100.00;98633.72;7392355;19;20030;-80
2022/09/08 06:16:05;;;;;;;0.20;0.10;;;;;;;16.80;100.00;98638.78;7392715;19;20026;-80
2022/09/08 06:18:37;;;;;;;1.33;0.25;;;;;;;16.84;100.00;98633.56;7387738;19;20073;-80
2022/09/08 06:21:08;;;;;;;1.10;0.30;;;;;;;16.83;100.00;98626.47;7386516;19;20477;-80
2022/09/08 06:23:34;;;;;;;1.40;0.68;;;;;;;16.86;100.00;98639.41;7390492;19;20075;-80
2022/09/08 06:26:37;;;;;;;0.10;0.10;;;;;;;17.15;100.00;98638.19;7393200;19;20024;-80
2022/09/08 06:29:10;;;;;;;1.23;0.30;;;;;;;17.23;100.00;98627.72;7388167;19;20018;-80
2022/09/08 06:31:47;;;;;;;0.57;0.57;;;;;;;17.29;100.00;98636.78;7388683;19;20010;-80
2022/09/08 06:34:21;;;;;;;0.30;0.17;;;;;;;17.45;100.00;98638.41;7386342;19;20018;-80
2022/09/08 06:36:52;;;;;;;0.10;0.10;;;;;;;17.59;100.00;98637.03;7388367;19;20346;-79
2022/09/08 06:39:47;;;;;;;1.63;0.73;;;;;;;17.75;100.00;98626.63;7388376;19;20011;-80
2022/09/08 06:42:18;;;;;;;0.63;0.50;;;;;;;17.83;100.00;98630.97;7389610;19;20010;-80
2022/09/08 06:44:50;;;;;;;0.43;0.17;;;;;;;17.95;100.00;98629.34;7388866;19;20118;-80
2022/09/08 06:47:31;;;;;;;0.10;0.10;;;;;;;18.08;100.00;98637.66;7391381;19;20025;-80
2022/09/08 06:49:57;;;;;;;1.83;0.70;;;;;;;18.22;100.00;98638.28;7391109;19;20018;-80
2022/09/08 06:52:50;;;;;;;0.38;0.10;;;;;;;18.43;100.00;98636.13;7391243;19;20018;-79
2022/09/08 06:55:32;;;;;;;0.20;0.20;;;;;;;18.66;100.00;98634.16;7395409;19;20026;-85
2022/09/08 06:58:05;;;;;;;0.70;0.20;;;;;;;18.84;100.00;98641.50;7392085;19;20018;-86
2022/09/08 07:01:00;;;;;;;0.65;0.65;;;;;;;19.04;100.00;98634.19;7393224;19;20026;-85
2022/09/08 07:03:38;;;;;;;0.50;0.20;;;;;;;19.15;100.00;98633.81;7394297;19;20360;-86
2022/09/08 07:06:09;;;;;;;0.88;0.32;;;;;;;19.28;100.00;98625.16;7394662;19;20035;-85
2022/09/08 07:09:02;;;;;;;3.47;0.60;;;;;;;19.35;100.00;98627.28;7393817;19;20042;-85
2022/09/08 07:12:22;;;;;;;0.98;0.22;;;;;;;19.30;100.00;98631.00;7395324;19;20035;-85
2022/09/08 07:15:06;;;;;;;0.45;0.32;;;;;;;19.46;100.00;98638.19;7393296;19;20011;-84
2022/09/08 07:17:39;;;;;;;6.00;0.38;;;;;;;19.49;100.00;98630.66;7395547;19;20018;-84
2022/09/08 07:20:10;;;;;;;0.82;0.40;;;;;;;19.57;100.00;98632.16;7393226;19;20476;-84
2022/09/08 07:22:39;;;;;;;2.83;0.82;;;;;;;19.61;100.00;98623.28;7394248;19;20086;-83
2022/09/08 07:25:24;;;;;;;3.05;0.60;;;;;;;19.69;100.00;98618.38;7391819;19;20014;-84
2022/09/08 07:28:01;;;;;;;1.50;0.55;;;;;;;19.76;100.00;98625.31;7392912;19;20010;-83
2022/09/08 07:30:27;;;;;;;13.20;1.30;;;;;;;19.84;100.00;98626.06;7393634;19;20015;-84
2022/09/08 07:33:05;;;;;;;0.45;0.30;;;;;;;19.89;100.00;98627.91;7396883;19;20349;-83
2022/09/08 07:35:45;;;;;;;1.75;0.63;;;;;;;19.83;100.00;98627.38;7394862;19;20019;-84
2022/09/08 07:38:44;;;;;;;0.73;0.30;;;;;;;19.86;100.00;98623.44;7392100;19;20488;-83
2022/09/08 07:41:17;;;;;;;1.23;0.43;;;;;;;19.97;100.00;98615.28;7386991;19;20643;-84
2022/09/08 07:43:43;;;;;;;2.00;0.57;;;;;;;20.07;100.00;98613.38;7394533;19;20014;-84
2022/09/08 07:46:33;;;;;;;0.32;0.20;;;;;;;20.24;100.00;98610.69;7393498;19;20030;-84
2022/09/08 07:49:24;;;;;;;6.22;0.65;;;;;;;20.40;100.00;98611.34;7392435;19;20023;-87
2022/09/08 07:52:32;;;;;;;0.52;0.30;;;;;;;20.18;100.00;98612.19;7396298;19;20026;-85
2022/09/08 07:55:46;;;;;;;7.47;1.30;;;;;;;20.41;100.00;98615.69;7393232;19;20024;-84
2022/09/08 07:58:21;;;;;;;1.77;0.95;;;;;;;20.61;100.00;98608.97;7389672;19;20074;-82
2022/09/08 08:00:59;;;;;;;3.95;0.68;;;;;;;20.63;100.00;98600.66;7387814;19;20011;-83
2022/09/08 08:03:36;;;;;;;1.33;0.43;;;;;;;20.69;100.00;98606.84;7387634;19;20596;-83
2022/09/08 08:06:14;;;;;;;7.43;1.33;;;;;;;20.72;100.00;98594.38;7391225;19;20015;-83
2022/09/08 08:08:52;;;;;;;4.75;1.80;;;;;;;20.88;100.00;98592.19;7391256;19;20333;-83
2022/09/08 08:11:22;;;;;;;2.30;1.17;;;;;;;20.87;100.00;98599.94;7391185;19;20018;-83
2022/09/08 08:13:51;;;;;;;1.70;0.52;;;;;;;21.03;100.00;98597.75;7392416;19;20025;-82
2022/09/08 08:16:37;;;;;;;2.65;0.70;;;;;;;21.05;100.00;98593.03;7393469;19;20018;-83
2022/09/08 08:19:21;;;;;;;4.00;0.88;;;;;;;21.14;100.00;98598.03;7390966;19;20011;-83
2022/09/08 08:21:58;;;;;;;2.35;0.55;;;;;;;21.19;100.00;98598.38;7391799;19;20029;-84
2022/09/08 08:24:50;;;;;;;2.38;1.02;;;;;;;21.20;100.00;98586.50;7395881;19;20025;-83
2022/09/08 08:27:35;;;;;;;1.77;1.00;;;;;;;21.03;100.00;98589.25;7393275;19;20014;-82
2022/09/08 08:30:17;;;;;;;1.58;0.43;;;;;;;20.92;100.00;98586.88;7388327;19;20353;-82
2022/09/08 08:32:53;;;;;;;2.25;0.88;;;;;;;21.03;100.00;98592.09;7393892;19;20022;-82
2022/09/08 08:35:24;;;;;;;3.17;0.77;;;;;;;21.14;100.00;98600.88;7387521;19;20022;-83
2022/09/08 08:37:53;;;;;;;1.48;0.38;;;;;;;21.22;100.00;98591.56;7386272;19;20441;-82
2022/09/08 08:40:26;;;;;;;5.95;0.95;;;;;;;21.14;100.00;98595.22;7384490;19;20025;-81
2022/09/08 08:43:07;;;;;;;3.10;0.82;;;;;;;21.29;100.00;98602.81;7386330;19;20025;-81
2022/09/08 08:45:45;;;;;;;14.82;1.13;;;;;;;21.55;100.00;98601.47;7384738;19;20078;-80
2022/09/08 08:48:21;;;;;;;2.90;0.80;;;;;;;21.79;100.00;98597.78;7386094;19;20011;-80
2022/09/08 08:51:15;;;;;;;1.75;0.35;;;;;;;22.00;100.00;98591.75;7386123;19;20035;-81
2022/09/08 08:53:59;;;;;;;5.75;0.80;;;;;;;22.22;100.00;98594.28;7388322;19;20018;-83
2022/09/08 08:56:58;;;;;;;3.50;0.80;;;;;;;22.38;100.00;98604.09;7392537;19;20018;-83
2022/09/08 08:59:27;;;;;;;2.55;0.85;;;;;;;22.52;100.00;98602.38;7380798;19;20618;-81
2022/09/08 09:02:15;;;;;;;1.95;0.32;;;;;;;22.49;100.00;98603.59;7389698;19;20638;-80
2022/09/08 09:04:53;;;;;;;1.38;0.55;;;;;;;22.54;100.00;98602.53;7385450;19;20097;-80
2022/09/08 09:07:28;;;;;;;1.98;0.63;;;;;;;22.46;100.00;98601.16;7390534;19;20043;-92
2022/09/08 09:10:02;;;;;;;0.45;0.30;;;;;;;22.38;100.00;98606.19;7387938;19;20066;-81
2022/09/08 09:12:43;;;;;;;5.00;1.13;;;;;;;22.16;100.00;98601.53;7386645;19;20022;-81
2022/09/08 09:15:33;;;;;;;0.43;0.30;;;;;;;21.78;100.00;98601.97;7392906;19;20010;-85
2022/09/08 09:18:12;;;;;;;2.55;1.08;;;;;;;21.55;100.00;98612.81;7392533;19;20011;-85
2022/09/08 09:20:50;;;;;;;6.95;1.08;;;;;;;21.43;100.00;98617.44;7391420;19;20024;-84
2022/09/08 09:23:29;;;;;;;2.40;0.65;;;;;;;21.41;100.00;98612.34;7394976;19;20485;-85
2022/09/08 09:26:01;;;;;;;1.65;0.30;;;;;;;21.33;100.00;98608.81;7391870;19;20093;-85
2022/09/08 09:28:45;;;;;;;15.00;0.95;;;;;;;21.29;100.00;98611.31;7391494;19;20051;-85
2022/09/08 09:31:33;;;;;;;3.45;0.43;;;;;;;21.29;100.00;98608.47;7394711;19;20010;-86
2022/09/08 09:34:37;;;;;;;4.53;0.98;;;;;;;21.27;100.00;98605.47;7397264;19;20023;-84
2022/09/08 09:37:06;;;;;;;4.95;0.77;;;;;;;21.31;100.00;98605.09;7401352;19;20014;-84
2022/09/08 09:40:10;;;;;;;1.75;1.02;;;;;;;21.30;100.00;98604.34;7396529;19;20018;-83
2022/09/08 09:42:52;;;;;;;0.82;0.40;;;;;;;21.33;100.00;98596.75;7397848;19;20038;-84
2022/09/08 09:45:38;;;;;;;3.05;0.95;;;;;;;21.79;100.00;98592.13;7396967;19;20476;-83
2022/09/08 09:48:26;;;;;;;2.50;0.65;;;;;;;21.98;100.00;98594.41;7394500;19;20081;-83
2022/09/08 09:51:14;;;;;;;6.30;1.80;;;;;;;22.01;100.00;98599.66;7395319;19;20016;-84
2022/09/08 09:54:02;;;;;;;7.28;1.35;;;;;;;22.29;100.00;98593.44;7397295;19;20015;-84
2022/09/08 09:56:32;;;;;;;2.65;0.88;;;;;;;22.53;100.00;98595.38;7395619;19;20014;-84
2022/09/08 09:59:03;;;;;;;1.67;0.63;;;;;;;22.69;100.00;98606.56;7390388;19;20070;-83
2022/09/08 10:01:57;;;;;;;1.65;0.55;;;;;;;22.82;100.00;98594.81;7395696;19;20511;-83
2022/09/08 10:04:51;;;;;;;2.15;0.93;;;;;;;22.80;100.00;98594.66;7394060;19;20461;-84
2022/09/08 10:07:23;;;;;;;5.68;0.95;;;;;;;22.81;100.00;98593.31;7399204;19;20035;-83
2022/09/08 10:09:55;;;;;;;2.03;0.85;;;;;;;22.86;100.00;98595.13;7396508;19;20355;-84
2022/09/08 10:12:33;;;;;;;2.08;0.30;;;;;;;22.84;100.00;98594.97;7396964;19;20044;-83
2022/09/08 10:15:06;;;;;;;0.82;0.40;;;;;;;22.76;100.00;98591.50;7396101;19;20018;-83
2022/09/08 10:17:58;;;;;;;4.25;0.38;;;;;;;22.49;100.00;98595.06;7399748;19;20015;-84
2022/09/08 10:20:57;;;;;;;1.13;0.57;;;;;;;22.69;100.00;98590.28;7394811;19;20028;-81
2022/09/08 10:23:28;;;;;;;0.82;0.63;;;;;;;22.85;100.00;98591.53;7393359;19;20349;-82
2022/09/08 10:25:54;;;;;;;1.75;0.63;;;;;;;22.98;100.00;98585.47;7394187;19;20019;-82
2022/09/08 10:28:27;;;;;;;1.08;0.73;;;;;;;22.95;100.00;98585.91;7391478;19;20078;-83
2022/09/08 10:31:35;;;;;;;1.08;0.63;;;;;;;23.23;100.00;98579.56;7393081;19;20116;-82
2022/09/08 10:34:10;;;;;;;2.97;0.45;;;;;;;23.35;100.00;98580.50;7393142;19;20018;-81
2022/09/08 10:36:58;;;;;;;3.13;0.63;;;;;;;23.36;100.00;98584.88;7396836;19;20019;-81
2022/09/08 10:39:53;;;;;;;8.80;0.77;;;;;;;23.28;100.00;98581.38;7389046;19;20024;-80
2022/09/08 10:42:38;;;;;;;3.00;0.35;;;;;;;23.15;100.00;98581.78;7392983;19;20018;-81
2022/09/08 10:45:28;;;;;;;3.00;0.65;;;;;;;22.99;100.00;98578.44;7391699;19;20051;-81
2022/09/08 10:48:28;;;;;;;3.80;0.35;;;;;;;23.03;100.00;98583.69;7391509;19;20460;-81
2022/09/08 10:51:12;;;;;;;1.90;0.98;;;;;;;23.20;100.00;98575.81;7392376;19;20021;-80
2022/09/08 10:54:18;;;;;;;2.08;0.63;;;;;;;23.24;100.00;98572.53;7392145;19;20029;-82
2022/09/08 10:56:47;;;;;;;2.72;0.82;;;;;;;23.22;100.00;98569.53;7394463;19;20018;-81
2022/09/08 10:59:19;;;;;;;0.68;0.35;;;;;;;23.12;100.00;98560.25;7389899;19;20015;-82
2022/09/08 11:01:54;;;;;;;0.50;0.20;;;;;;;23.16;100.00;98569.84;7396887;19;20006;-82
2022/09/08 11:04:51;;;;;;;2.70;0.25;;;;;;;23.15;100.00;98574.00;7394636;19;20025;-84
2022/09/08 11:07:55;;;;;;;4.75;0.10;;;;;;;23.22;100.00;98569.53;7396469;19;20492;-82
2022/09/08 11:10:36;;;;;;;2.97;0.50;;;;;;;23.43;100.00;98569.78;7391711;19;20006;-83
2022/09/08 11:13:20;;;;;;;1.58;0.60;;;;;;;23.56;100.00;98557.97;7391699;19;20035;-82
2022/09/08 11:16:10;;;;;;;1.13;0.50;;;;;;;23.97;100.00;98559.59;7392241;19;20422;-80
2022/09/08 11:18:46;;;;;;;0.60;0.20;;;;;;;23.95;100.00;98565.16;7388054;19;20369;-81
2022/09/08 11:21:38;;;;;;;4.45;0.45;;;;;;;23.84;100.00;98568.63;7386494;19;20090;-80
2022/09/08 11:24:33;;;;;;;3.75;1.38;;;;;;;23.73;100.00;98563.53;7389705;19;20050;-80
2022/09/08 11:27:05;;;;;;;1.73;0.60;;;;;;;23.72;100.00;98555.56;7392196;19;20425;-81
2022/09/08 11:29:38;;;;;;;3.88;0.57;;;;;;;23.41;100.00;98544.06;7391667;19;20006;-80
2022/09/08 11:32:18;;;;;;;1.95;0.52;;;;;;;23.40;100.00;98539.69;7390490;19;20056;-81
2022/09/08 11:35:12;;;;;;;2.90;0.55;;;;;;;23.50;100.00;98539.72;7390077;19;20074;-82
2022/09/08 11:37:57;;;;;;;1.02;0.50;;;;;;;23.82;100.00;98528.63;7392762;19;20069;-82
2022/09/08 11:40:44;;;;;;;0.88;0.68;;;;;;;23.98;100.00;98529.84;7386531;19;20694;-80
2022/09/08 11:43:32;;;;;;;2.95;0.28;;;;;;;24.23;100.00;98523.84;7385978;19;20006;-81
2022/09/08 11:46:17;;;;;;;2.45;0.25;;;;;;;24.25;100.00;98526.06;7389643;19;20010;-82
2022/09/08 11:48:59;;;;;;;2.90;0.50;;;;;;;24.36;100.00;98525.44;7390640;19;20078;-82
2022/09/08 11:51:32;;;;;;;0.50;0.10;;;;;;;24.21;100.00;98522.94;7390452;19;20035;-84
2022/09/08 11:54:14;;;;;;;1.95;0.35;;;;;;;24.04;100.00;98524.59;7393412;19;20015;-82
2022/09/08 11:56:54;;;;;;;3.58;0.30;;;;;;;23.96;100.00;98528.94;7392614;19;20449;-83
2022/09/08 11:59:39;;;;;;;3.25;0.50;;;;;;;23.81;100.00;98520.72;7393201;19;20082;-80
2022/09/08 12:02:39;;;;;;;2.38;0.38;;;;;;;23.62;100.00;98518.63;7392508;19;20043;-81